createdAt,value
2022-11-09T00:02:16.543Z,12.07
2022-11-09T00:04:43.021Z,11.86
2022-11-09T00:07:09.405Z,11.82
2022-11-09T00:09:35.850Z,11.64
2022-11-09T00:12:04.767Z,11.86
2022-11-09T00:14:31.047Z,11.87
2022-11-09T00:16:57.329Z,11.97
2022-11-09T00:19:23.583Z,11.96
2022-11-09T00:21:49.853Z,11.93
2022-11-09T00:24:16.124Z,11.95
2022-11-09T00:26:44.204Z,11.80
2022-11-09T00:29:10.383Z,11.77
2022-11-09T00:31:36.667Z,11.79
2022-11-09T00:34:02.935Z,11.89
2022-11-09T00:36:29.307Z,11.78
2022-11-09T00:38:55.568Z,11.71
2022-11-09T00:41:21.839Z,11.73
2022-11-09T00:43:48.098Z,11.71
2022-11-09T00:46:14.417Z,11.66
2022-11-09T00:48:40.761Z,11.59
2022-11-09T00:51:07.023Z,11.69
2022-11-09T00:53:33.296Z,11.67
2022-11-09T00:55:59.568Z,11.55
2022-11-09T00:58:25.850Z,11.34
2022-11-09T01:00:52.480Z,11.53
2022-11-09T01:03:20.515Z,11.52
2022-11-09T01:05:47.098Z,11.51
2022-11-09T01:08:13.442Z,11.54
2022-11-09T01:10:39.704Z,11.40
2022-11-09T01:13:06.011Z,11.39
2022-11-09T01:15:33.258Z,11.15
2022-11-09T01:17:59.520Z,11.39
2022-11-09T01:20:25.798Z,11.16
2022-11-09T01:22:52.072Z,11.26
2022-11-09T01:25:18.551Z,11.15
2022-11-09T01:27:44.812Z,11.32
2022-11-09T01:30:11.079Z,11.16
2022-11-09T01:32:37.353Z,11.25
2022-11-09T01:35:03.623Z,11.25
2022-11-09T01:37:29.895Z,11.28
2022-11-09T01:39:56.156Z,11.27
2022-11-09T01:42:22.739Z,11.03
2022-11-09T01:44:48.999Z,11.08
2022-11-09T01:47:15.251Z,10.89
2022-11-09T01:49:41.506Z,11.12
2022-11-09T01:52:07.763Z,11.11
2022-11-09T01:54:34.034Z,11.05
2022-11-09T01:57:00.293Z,11.12
2022-11-09T01:59:26.542Z,11.07
2022-11-09T02:01:52.804Z,11.03
2022-11-09T02:04:19.079Z,11.07
2022-11-09T02:06:45.451Z,11.05
2022-11-09T02:09:12.459Z,11.21
2022-11-09T02:11:38.723Z,11.05
2022-11-09T02:14:04.975Z,11.11
2022-11-09T02:16:31.288Z,11.03
2022-11-09T02:18:57.580Z,11.05
2022-11-09T02:21:24.034Z,11.08
2022-11-09T02:23:50.302Z,11.06
2022-11-09T02:26:16.584Z,10.98
2022-11-09T02:28:42.839Z,11.01
2022-11-09T02:31:09.301Z,11.00
2022-11-09T02:33:35.560Z,10.93
2022-11-09T02:36:01.826Z,10.71
2022-11-09T02:38:28.097Z,10.73
2022-11-09T02:40:54.366Z,10.99
2022-11-09T02:43:20.866Z,10.76
2022-11-09T02:45:47.444Z,10.95
2022-11-09T02:48:13.794Z,10.95
2022-11-09T02:50:40.054Z,10.75
2022-11-09T02:53:06.451Z,10.77
2022-11-09T02:55:32.698Z,10.81
2022-11-09T02:57:59.163Z,10.72
2022-11-09T03:00:25.423Z,10.79
2022-11-09T03:02:51.687Z,10.83
2022-11-09T03:05:17.958Z,10.84
2022-11-09T03:07:44.254Z,10.83
2022-11-09T03:10:12.140Z,10.68
2022-11-09T03:12:38.462Z,10.56
2022-11-09T03:15:04.808Z,10.75
2022-11-09T03:17:31.072Z,10.71
2022-11-09T03:19:57.539Z,10.53
2022-11-09T03:22:23.803Z,10.66
2022-11-09T03:24:50.102Z,10.60
2022-11-09T03:27:16.398Z,10.55
2022-11-09T03:29:42.660Z,10.61
2022-11-09T03:32:08.920Z,10.49
2022-11-09T03:34:35.251Z,10.41
2022-11-09T03:37:01.553Z,10.52
2022-11-09T03:39:27.981Z,10.49
2022-11-09T03:41:54.236Z,10.47
2022-11-09T03:44:20.577Z,10.37
2022-11-09T03:46:46.839Z,10.56
2022-11-09T03:49:13.315Z,10.32
2022-11-09T03:51:39.571Z,10.41
2022-11-09T03:54:05.850Z,10.46
2022-11-09T03:56:32.105Z,10.36
2022-11-09T03:58:58.518Z,10.32
2022-11-09T04:01:24.821Z,10.48
2022-11-09T04:03:51.242Z,10.62
2022-11-09T04:06:17.503Z,10.37
2022-11-09T04:08:48.381Z,10.46
2022-11-09T04:11:17.294Z,10.44
2022-11-09T04:13:43.628Z,10.36
2022-11-09T04:16:09.902Z,10.37
2022-11-09T04:18:36.259Z,10.38
2022-11-09T04:21:02.517Z,10.19
2022-11-09T04:23:28.806Z,10.25
2022-11-09T04:25:55.067Z,10.32
2022-11-09T04:28:21.318Z,10.20
2022-11-09T04:30:47.603Z,10.27
2022-11-09T04:33:14.055Z,10.19
2022-11-09T04:35:40.317Z,10.18
2022-11-09T04:38:06.627Z,10.12
2022-11-09T04:40:33.026Z,10.15
2022-11-09T04:42:59.300Z,10.40
2022-11-09T04:45:25.558Z,10.30
2022-11-09T04:47:51.812Z,10.42
2022-11-09T04:50:18.084Z,10.34
2022-11-09T04:52:44.346Z,10.36
2022-11-09T04:55:11.105Z,10.40
2022-11-09T04:57:37.380Z,10.21
2022-11-09T05:00:03.649Z,10.30
2022-11-09T05:02:29.915Z,10.30
2022-11-09T05:04:56.183Z,10.25
2022-11-09T05:07:22.434Z,10.44
2022-11-09T05:09:48.690Z,10.42
2022-11-09T05:12:14.950Z,10.35
2022-11-09T05:14:41.211Z,10.25
2022-11-09T05:17:08.734Z,10.43
2022-11-09T05:19:34.992Z,10.40
2022-11-09T05:22:19.772Z,10.29
2022-11-09T05:24:46.148Z,10.49
2022-11-09T05:27:12.680Z,10.43
2022-11-09T05:29:38.940Z,10.46
2022-11-09T05:32:05.206Z,10.42
2022-11-09T05:34:31.463Z,10.42
2022-11-09T05:37:03.133Z,10.54
2022-11-09T05:39:29.846Z,10.51
2022-11-09T05:41:56.124Z,10.48
2022-11-09T05:44:22.387Z,10.38
2022-11-09T05:46:48.684Z,10.45
2022-11-09T05:49:14.935Z,10.35
2022-11-09T05:51:41.204Z,10.48
2022-11-09T05:54:07.467Z,10.59
2022-11-09T05:56:33.737Z,10.36
2022-11-09T05:58:59.998Z,10.51
2022-11-09T06:01:26.344Z,10.52
2022-11-09T06:03:52.612Z,10.64
2022-11-09T06:06:18.866Z,10.63
2022-11-09T06:08:45.180Z,10.63
2022-11-09T06:11:11.477Z,10.52
2022-11-09T06:13:37.809Z,10.71
2022-11-09T06:16:04.155Z,10.54
2022-11-09T06:18:30.415Z,10.52
2022-11-09T06:20:57.156Z,10.52
2022-11-09T06:23:25.597Z,10.47
2022-11-09T06:25:51.872Z,10.55
2022-11-09T06:28:18.161Z,10.54
2022-11-09T06:30:44.426Z,10.54
2022-11-09T06:33:10.696Z,10.66
2022-11-09T06:35:37.320Z,10.64
2022-11-09T06:38:03.607Z,10.47
2022-11-09T06:40:30.069Z,10.53
2022-11-09T06:42:56.523Z,10.55
2022-11-09T06:45:22.782Z,10.66
2022-11-09T06:47:49.039Z,10.56
2022-11-09T06:50:15.366Z,10.59
2022-11-09T06:52:41.677Z,10.72
2022-11-09T06:55:08.279Z,10.71
2022-11-09T06:57:38.074Z,10.64
2022-11-09T07:00:04.342Z,10.63
2022-11-09T07:02:30.651Z,10.56
2022-11-09T07:04:56.968Z,10.52
2022-11-09T07:07:28.031Z,10.68
2022-11-09T07:09:55.768Z,10.73
2022-11-09T07:12:22.155Z,10.69
2022-11-09T07:14:48.411Z,10.87
2022-11-09T07:17:14.686Z,10.73
2022-11-09T07:19:40.936Z,10.68
2022-11-09T07:22:07.206Z,10.66
2022-11-09T07:24:33.466Z,10.71
2022-11-09T07:26:59.722Z,10.66
2022-11-09T07:29:26.001Z,10.70
2022-11-09T07:31:52.270Z,10.85
2022-11-09T07:34:18.541Z,10.84
2022-11-09T07:36:44.817Z,11.03
2022-11-09T07:39:11.111Z,11.16
2022-11-09T07:41:37.379Z,11.11
2022-11-09T07:44:03.664Z,11.12
2022-11-09T07:46:29.951Z,11.20
2022-11-09T07:48:56.210Z,11.16
2022-11-09T07:51:22.466Z,11.23
2022-11-09T07:53:48.778Z,11.11
2022-11-09T07:56:15.035Z,11.14
2022-11-09T07:58:41.326Z,11.03
2022-11-09T08:01:08.405Z,11.19
2022-11-09T08:03:34.612Z,11.17
2022-11-09T08:06:00.890Z,11.28
2022-11-09T08:08:27.157Z,11.20
2022-11-09T08:10:53.563Z,11.22
2022-11-09T08:13:20.141Z,11.02
2022-11-09T08:15:47.523Z,11.24
2022-11-09T08:18:13.720Z,11.13
2022-11-09T08:20:39.982Z,11.18
2022-11-09T08:23:06.344Z,11.14
2022-11-09T08:25:32.660Z,11.15
2022-11-09T08:27:58.959Z,11.28
2022-11-09T08:30:25.230Z,11.28
2022-11-09T08:32:51.536Z,11.31
2022-11-09T08:35:17.971Z,11.18
2022-11-09T08:37:44.291Z,11.24
2022-11-09T08:40:10.679Z,11.33
2022-11-09T08:42:36.951Z,11.17
2022-11-09T08:45:03.333Z,11.33
2022-11-09T08:47:29.646Z,11.47
2022-11-09T08:49:55.904Z,11.42
2022-11-09T08:52:22.472Z,11.52
2022-11-09T08:54:48.736Z,11.39
2022-11-09T08:57:15.057Z,11.43
2022-11-09T08:59:41.328Z,11.56
2022-11-09T09:02:07.651Z,11.54
2022-11-09T09:04:33.988Z,11.61
2022-11-09T09:07:00.426Z,11.66
2022-11-09T09:09:27.115Z,11.52
2022-11-09T09:11:53.370Z,11.75
2022-11-09T09:14:19.655Z,11.66
2022-11-09T09:16:45.917Z,11.81
2022-11-09T09:19:12.193Z,11.89
2022-11-09T09:21:38.492Z,11.82
2022-11-09T09:24:04.767Z,11.81
2022-11-09T09:26:31.295Z,11.80
2022-11-09T09:28:57.547Z,11.91
2022-11-09T09:31:24.070Z,11.81
2022-11-09T09:33:50.391Z,11.82
2022-11-09T09:36:16.674Z,11.63
2022-11-09T09:38:42.937Z,11.53
2022-11-09T09:41:09.191Z,11.77
2022-11-09T09:43:41.542Z,11.75
2022-11-09T09:46:09.200Z,11.67
2022-11-09T09:48:35.634Z,11.56
2022-11-09T09:51:01.958Z,11.63
2022-11-09T09:53:28.325Z,11.70
2022-11-09T09:55:54.663Z,11.79
2022-11-09T09:58:21.232Z,11.81
2022-11-09T10:00:47.834Z,11.95
2022-11-09T10:03:14.391Z,11.74
2022-11-09T10:05:40.659Z,11.80
2022-11-09T10:08:06.947Z,11.90
2022-11-09T10:10:33.221Z,11.75
2022-11-09T10:12:59.570Z,11.95
2022-11-09T10:15:25.826Z,11.95
2022-11-09T10:17:52.082Z,11.95
2022-11-09T10:20:18.340Z,11.84
2022-11-09T10:22:45.619Z,11.76
2022-11-09T10:25:37.573Z,12.10
2022-11-09T10:28:01.249Z,11.82
2022-11-09T10:30:27.589Z,11.86
2022-11-09T10:32:53.850Z,11.87
2022-11-09T10:35:20.611Z,11.79
2022-11-09T10:37:48.190Z,11.77
2022-11-09T10:40:16.743Z,11.74
2022-11-09T10:42:43.023Z,12.03
2022-11-09T10:45:09.315Z,11.91
2022-11-09T10:47:36.613Z,11.73
2022-11-09T10:50:02.871Z,11.84
2022-11-09T10:52:29.277Z,11.88
2022-11-09T10:54:55.601Z,12.07
2022-11-09T10:57:21.904Z,11.91
2022-11-09T10:59:48.161Z,11.99
2022-11-09T11:02:14.495Z,12.13
2022-11-09T11:04:40.822Z,12.02
2022-11-09T11:07:07.165Z,12.12
2022-11-09T11:09:33.581Z,11.98
2022-11-09T11:11:59.846Z,12.04
2022-11-09T11:14:26.173Z,12.05
2022-11-09T11:16:53.256Z,11.88
2022-11-09T11:19:19.691Z,12.02
2022-11-09T11:21:45.964Z,12.24
2022-11-09T11:24:12.337Z,12.18
2022-11-09T11:26:38.620Z,12.23
2022-11-09T11:29:04.959Z,12.03
2022-11-09T11:31:31.238Z,12.27
2022-11-09T11:33:57.615Z,12.17
2022-11-09T11:36:23.915Z,12.38
2022-11-09T11:38:50.243Z,12.28
2022-11-09T11:41:16.617Z,12.32
2022-11-09T11:43:42.891Z,12.22
2022-11-09T11:46:09.166Z,12.35
2022-11-09T11:48:35.791Z,12.37
2022-11-09T11:51:02.107Z,12.21
2022-11-09T11:53:28.438Z,12.31
2022-11-09T11:55:54.704Z,12.65
2022-11-09T11:58:21.038Z,12.37
2022-11-09T12:00:47.534Z,12.50
2022-11-09T12:03:15.023Z,12.55
2022-11-09T12:05:41.382Z,12.51
2022-11-09T12:08:11.020Z,12.47
2022-11-09T12:10:37.893Z,12.48
2022-11-09T12:13:04.170Z,12.48
2022-11-09T12:15:30.487Z,12.38
2022-11-09T12:17:56.786Z,12.34
2022-11-09T12:20:23.102Z,12.34
2022-11-09T12:22:53.168Z,12.49
2022-11-09T12:25:19.543Z,12.44
2022-11-09T12:27:45.811Z,12.23
2022-11-09T12:30:12.935Z,12.19
2022-11-09T12:32:39.135Z,12.27
2022-11-09T12:35:05.405Z,12.01
2022-11-09T12:37:31.662Z,12.21
2022-11-09T12:39:57.982Z,12.07
2022-11-09T12:45:30.351Z,12.19
2022-11-09T12:47:57.861Z,12.07
2022-11-09T12:50:27.931Z,12.18
2022-11-09T12:52:54.252Z,12.00
2022-11-09T12:55:20.595Z,11.94
2022-11-09T12:57:46.864Z,12.17
2022-11-09T13:00:13.198Z,12.33
2022-11-09T13:02:39.485Z,12.26
2022-11-09T13:05:05.764Z,12.51
2022-11-09T13:07:32.203Z,12.66
2022-11-09T13:09:58.528Z,12.77
2022-11-09T13:12:24.797Z,12.65
2022-11-09T13:14:51.088Z,12.63
2022-11-09T13:17:17.378Z,12.49
2022-11-09T13:19:43.772Z,12.59
2022-11-09T13:22:10.036Z,12.59
2022-11-09T13:24:36.304Z,12.29
2022-11-09T13:27:02.750Z,12.29
2022-11-09T13:29:29.061Z,12.35
2022-11-09T13:31:55.326Z,12.25
2022-11-09T13:34:21.620Z,12.64
2022-11-09T13:36:50.838Z,12.45
2022-11-09T13:39:17.127Z,12.70
2022-11-09T13:41:43.449Z,12.48
2022-11-09T13:44:09.706Z,12.30
2022-11-09T13:46:35.985Z,12.46
2022-11-09T13:49:02.264Z,12.51
2022-11-09T13:51:28.797Z,12.49
2022-11-09T13:53:55.067Z,12.56
2022-11-09T13:56:26.122Z,12.44
2022-11-09T13:58:53.633Z,12.46
2022-11-09T14:01:19.936Z,12.32
2022-11-09T14:03:46.504Z,12.19
2022-11-09T14:06:13.508Z,12.15
2022-11-09T14:08:40.866Z,12.25
2022-11-09T14:14:02.074Z,12.01
2022-11-09T14:16:29.600Z,12.02
2022-11-09T14:18:56.213Z,11.99
2022-11-09T14:21:22.771Z,11.80
2022-11-09T14:23:49.292Z,11.88
2022-11-09T14:26:15.599Z,11.89
2022-11-09T14:31:31.898Z,11.87
2022-11-09T14:33:58.167Z,11.93
2022-11-09T14:36:24.431Z,11.76
2022-11-09T14:38:50.759Z,11.77
2022-11-09T14:41:17.045Z,11.66
2022-11-09T14:43:43.309Z,11.67
2022-11-09T14:48:59.542Z,11.55
2022-11-09T14:51:25.806Z,11.44
2022-11-09T14:53:52.145Z,11.50
2022-11-09T14:56:18.400Z,11.52
2022-11-09T14:58:48.195Z,11.44
2022-11-09T15:01:14.455Z,11.45
2022-11-09T15:03:40.721Z,11.31
2022-11-09T15:06:07.350Z,11.34
2022-11-09T15:08:33.759Z,11.37
2022-11-09T15:11:00.053Z,11.21
2022-11-09T15:13:26.325Z,11.26
2022-11-09T15:15:55.896Z,11.24
2022-11-09T15:18:22.859Z,11.08
2022-11-09T15:20:49.757Z,11.17
2022-11-09T15:23:16.029Z,11.02
2022-11-09T15:25:42.297Z,11.06
2022-11-09T15:28:08.573Z,11.03
2022-11-09T15:30:34.893Z,10.92
2022-11-09T15:33:01.161Z,10.91
2022-11-09T15:35:27.424Z,10.99
2022-11-09T15:37:54.752Z,10.95
2022-11-09T15:40:21.036Z,10.96
2022-11-09T15:42:47.312Z,10.74
2022-11-09T15:45:13.600Z,10.88
2022-11-09T15:47:39.960Z,10.65
2022-11-09T15:50:06.276Z,10.64
2022-11-09T15:52:32.592Z,10.76
2022-11-09T15:54:58.849Z,10.75
2022-11-09T15:57:25.133Z,10.68
2022-11-09T15:59:51.416Z,10.80
2022-11-09T16:02:22.908Z,10.79
2022-11-09T16:04:49.176Z,10.65
2022-11-09T16:07:15.509Z,10.57
2022-11-09T16:09:41.885Z,10.82
2022-11-09T16:12:08.183Z,10.83
2022-11-09T16:14:34.456Z,10.82
2022-11-09T16:17:00.718Z,11.00
2022-11-09T16:19:28.997Z,11.05
2022-11-09T16:21:55.263Z,10.79
2022-11-09T16:24:21.586Z,10.97
2022-11-09T16:26:47.908Z,10.93
2022-11-09T16:29:14.185Z,11.07
2022-11-09T16:31:51.292Z,11.09
2022-11-09T16:34:17.907Z,11.00
2022-11-09T16:36:50.844Z,11.02
2022-11-09T16:39:18.721Z,11.00
2022-11-09T16:41:44.987Z,10.96
2022-11-09T16:44:11.253Z,10.98
2022-11-09T16:46:37.524Z,11.05
2022-11-09T16:49:04.015Z,11.05
2022-11-09T16:51:30.278Z,11.11
2022-11-09T16:53:56.530Z,11.02
2022-11-09T16:56:22.790Z,11.15
2022-11-09T16:58:49.052Z,11.01
2022-11-09T17:01:17.717Z,11.06
2022-11-09T17:03:48.455Z,11.01
2022-11-09T17:06:15.064Z,11.20
2022-11-09T17:08:41.328Z,11.30
2022-11-09T17:11:07.776Z,11.20
2022-11-09T17:13:34.047Z,11.37
2022-11-09T17:16:00.298Z,11.34
2022-11-09T17:18:26.616Z,11.38
2022-11-09T17:20:52.888Z,11.44
2022-11-09T17:23:19.213Z,11.44
2022-11-09T17:25:45.475Z,11.49
2022-11-09T17:28:11.743Z,11.54
2022-11-09T17:30:37.995Z,11.65
2022-11-09T17:33:04.283Z,11.56
2022-11-09T17:35:36.371Z,11.62
2022-11-09T17:38:02.627Z,11.59
2022-11-09T17:40:28.898Z,11.55
2022-11-09T17:42:56.907Z,11.41
2022-11-09T17:45:26.842Z,11.51
2022-11-09T17:47:53.089Z,11.60
2022-11-09T17:50:21.199Z,11.56
2022-11-09T17:52:47.392Z,11.51
2022-11-09T17:55:13.640Z,11.60
2022-11-09T17:57:39.904Z,11.56
2022-11-09T18:00:06.382Z,11.45
2022-11-09T18:02:33.929Z,11.60
2022-11-09T18:07:50.964Z,11.63
2022-11-09T18:10:17.232Z,11.76
2022-11-09T18:12:43.610Z,11.64
2022-11-09T18:15:09.875Z,11.74
2022-11-09T18:17:36.304Z,11.73
2022-11-09T18:20:02.568Z,11.78
2022-11-09T18:22:28.825Z,11.83
2022-11-09T18:24:55.097Z,11.59
2022-11-09T18:27:23.775Z,11.71
2022-11-09T18:29:56.212Z,11.61
2022-11-09T18:32:22.495Z,11.72
2022-11-09T18:34:48.755Z,11.71
2022-11-09T18:37:15.020Z,11.81
2022-11-09T18:39:41.296Z,11.81
2022-11-09T18:42:07.586Z,11.68
2022-11-09T18:44:33.943Z,11.85
2022-11-09T18:47:05.044Z,11.83
2022-11-09T18:49:31.966Z,11.92
2022-11-09T18:51:59.038Z,11.76
2022-11-09T18:54:25.252Z,11.90
2022-11-09T18:56:51.524Z,11.91
2022-11-09T18:59:17.783Z,11.81
2022-11-09T19:01:44.051Z,11.75
2022-11-09T19:04:11.408Z,11.87
2022-11-09T19:06:37.713Z,11.89
2022-11-09T19:09:22.784Z,11.94
2022-11-09T19:11:49.072Z,12.02
2022-11-09T19:14:15.341Z,11.93
2022-11-09T19:16:41.600Z,12.00
2022-11-09T19:19:07.859Z,11.93
2022-11-09T19:21:37.844Z,12.10
2022-11-09T19:24:04.100Z,12.07
2022-11-09T19:26:30.410Z,12.16
2022-11-09T19:28:56.679Z,11.97
2022-11-09T19:31:22.961Z,12.14
2022-11-09T19:33:49.421Z,11.98
2022-11-09T19:36:29.796Z,12.10
2022-11-09T19:38:57.449Z,12.14
2022-11-09T19:41:24.659Z,12.04
2022-11-09T19:43:50.915Z,12.16
2022-11-09T19:46:17.245Z,12.03
2022-11-09T19:48:43.512Z,12.12
2022-11-09T19:51:09.962Z,12.04
2022-11-09T19:53:42.027Z,12.05
2022-11-09T19:56:08.739Z,12.13
2022-11-09T19:58:35.003Z,12.11
2022-11-09T20:01:01.300Z,12.13
2022-11-09T20:03:27.598Z,12.11
2022-11-09T20:05:53.850Z,12.03
2022-11-09T20:08:20.385Z,12.14
2022-11-09T20:10:46.896Z,11.97
2022-11-09T20:13:13.248Z,12.08
2022-11-09T20:15:39.510Z,12.14
2022-11-09T20:18:05.778Z,12.15
2022-11-09T20:20:34.029Z,12.10
2022-11-09T20:23:00.367Z,12.12
2022-11-09T20:25:26.778Z,12.04
2022-11-09T20:27:53.045Z,12.14
2022-11-09T20:30:19.524Z,12.12
2022-11-09T20:32:45.788Z,12.10
2022-11-09T20:35:12.099Z,12.12
2022-11-09T20:37:38.379Z,12.12
2022-11-09T20:40:07.846Z,12.03
2022-11-09T20:42:34.104Z,12.13
2022-11-09T20:45:00.377Z,12.12
2022-11-09T20:47:57.195Z,12.09
2022-11-09T20:50:13.790Z,11.93
2022-11-09T20:52:39.979Z,12.08
2022-11-09T20:55:06.807Z,12.04
2022-11-09T20:57:33.069Z,11.95
2022-11-09T20:59:59.930Z,11.98
2022-11-09T21:02:26.203Z,12.01
2022-11-09T21:04:52.463Z,12.01
2022-11-09T21:07:18.731Z,12.09
2022-11-09T21:09:44.996Z,11.95
2022-11-09T21:12:24.690Z,12.06
2022-11-09T21:14:51.072Z,12.09
2022-11-09T21:17:17.353Z,11.98
2022-11-09T21:19:43.601Z,12.06
2022-11-09T21:22:10.029Z,12.02
2022-11-09T21:24:55.127Z,11.90
2022-11-09T21:27:44.217Z,11.86
2022-11-09T21:30:14.350Z,11.98
2022-11-09T21:32:40.599Z,11.96
2022-11-09T21:35:07.149Z,11.95
2022-11-09T21:37:33.424Z,12.00
2022-11-09T21:39:59.855Z,11.89
2022-11-09T21:42:26.150Z,11.83
2022-11-09T21:44:52.416Z,11.75
2022-11-09T21:47:18.743Z,11.87
2022-11-09T21:49:45.026Z,11.94
2022-11-09T21:52:11.293Z,11.85
2022-11-09T21:54:37.600Z,11.91
2022-11-09T21:57:03.863Z,11.86
2022-11-09T21:59:30.123Z,11.68
2022-11-09T22:01:56.444Z,11.67
2022-11-09T22:04:22.752Z,11.76
2022-11-09T22:06:49.035Z,11.86
2022-11-09T22:09:15.395Z,11.79
2022-11-09T22:12:00.209Z,11.80
2022-11-09T22:14:44.966Z,11.74
2022-11-09T22:17:12.435Z,11.69
2022-11-09T22:19:57.201Z,11.69
2022-11-09T22:22:23.465Z,11.54
2022-11-09T22:24:51.718Z,11.63
2022-11-09T22:27:17.976Z,11.73
2022-11-09T22:29:44.304Z,11.73
2022-11-09T22:32:10.565Z,11.55
2022-11-09T22:34:36.847Z,11.64
2022-11-09T22:37:03.105Z,11.58
2022-11-09T22:39:29.379Z,11.63
2022-11-09T22:41:55.640Z,11.67
2022-11-09T22:44:21.914Z,11.71
2022-11-09T22:46:48.170Z,11.69
2022-11-09T22:49:14.463Z,11.68
2022-11-09T22:51:40.734Z,11.75
2022-11-09T22:54:07.008Z,11.71
2022-11-09T22:56:33.293Z,11.61
2022-11-09T22:58:59.577Z,11.74
2022-11-09T23:01:25.924Z,11.71
2022-11-09T23:03:52.282Z,11.70
2022-11-09T23:06:21.271Z,11.68
2022-11-09T23:08:47.535Z,11.66
2022-11-09T23:11:13.795Z,11.72
2022-11-09T23:13:40.046Z,11.64
2022-11-09T23:16:06.302Z,11.53
2022-11-09T23:18:51.271Z,11.36
2022-11-09T23:21:17.544Z,11.55
2022-11-09T23:23:43.812Z,11.62
2022-11-09T23:26:10.069Z,11.60
2022-11-09T23:28:36.354Z,11.53
2022-11-09T23:31:02.655Z,11.39
2022-11-09T23:33:28.912Z,11.62
2022-11-09T23:35:55.240Z,11.53
2022-11-09T23:38:21.511Z,11.65
2022-11-09T23:40:47.794Z,11.68
2022-11-09T23:43:14.112Z,11.71
2022-11-09T23:45:40.402Z,11.73
2022-11-09T23:48:06.652Z,11.74
2022-11-09T23:50:33.130Z,11.70
2022-11-09T23:52:59.387Z,11.58
2022-11-09T23:55:25.659Z,11.28
2022-11-09T23:57:51.932Z,11.45
